Flight Track Log - Related Links

Times and Time Zones

All times are in EDT time to prevent confusion due to time zone crossing. See the UPS1122 flight status page for this flight to view local times or setup timezone preferences in your user account.

Time Position Orientation Groundspeed Altitude Reporting Facility
EDT Latitude Longitude Course Direction KTS MPH feet Rate Location/Type
Wed 03:37:46 AM 39.8667 -75.2500 90° East 146 168 1,200  Level Philadelphia TRACON
Wed 03:38:04 AM 39.8667 -75.2333 90° East 151 174 1,900 2,308 Climbing Philadelphia TRACON
Wed 03:39:04 AM 39.8667 -75.1500 90° East 218 251 4,200 2,682 Climbing Philadelphia TRACON
Wed 03:41:03 AM 39.8361 -74.9800 103° East 271 312 9,900 2,420 Climbing New York Center
Wed 03:42:05 AM 39.8192 -74.8736 102° East 282 325 11,500 1,700 Climbing New York Center
Wed 03:43:03 AM 39.8022 -74.7592 101° East 314 361 13,300 2,168 Climbing New York Center
Wed 03:44:04 AM 39.8517 -74.6539 59° Northeast 326 375 15,800 2,300 Climbing New York Center
Wed 03:45:03 AM 39.9375 -74.5772 34° Northeast 310 357 17,900 1,934 Climbing New York Center
Wed 03:46:05 AM 40.0319 -74.4931 34° Northeast 351 404 19,700 1,659 Climbing New York Center
Wed 03:47:06 AM 40.1156 -74.4161 35° Northeast 381 438 21,300 1,600 Climbing New York Center
Wed 03:48:05 AM 40.2100 -74.3314 34° Northeast 393 452 22,900 872 Climbing New York Center
Wed 03:49:03 AM 40.3000 -74.2461 36° Northeast 398 458 23,000 50 Climbing New York Center
Wed 03:50:04 AM 40.3942 -74.1611 34° Northeast 403 464 23,000  Level New York Center
Wed 03:51:06 AM 40.4861 -74.0756 35° Northeast 403 464 23,000  Level New York Center
Wed 03:52:05 AM 40.5783 -73.9869 36° Northeast 403 464 23,000  Level New York Center
Wed 03:53:50 AM 40.7453 -73.8400 34° Northeast 403 464 23,000  Level Boston Center
Wed 03:54:50 AM 40.8358 -73.7542 36° Northeast 403 464 23,000  Level Boston Center
Wed 03:55:50 AM 40.9267 -73.6625 37° Northeast 408 470 23,000  Level Boston Center
Wed 03:56:50 AM 41.0192 -73.5789 34° Northeast 403 464 23,000 -100 Level Boston Center
Wed 03:57:50 AM 41.1033 -73.4950 37° Northeast 397 457 22,800 -800 Descending Boston Center
Wed 03:58:50 AM 41.1833 -73.4219 34° Northeast 372 428 21,400 -2,150 Descending Boston Center
Wed 03:59:50 AM 41.2506 -73.3511 38° Northeast 326 375 18,500 -2,805 Descending Boston Center
Wed 04:00:07 AM 41.2778 -73.3267 34° Northeast 312 359 17,800 -2,500 Descending Boston Center
Wed 04:00:50 AM 41.3219 -73.2886 33° Northeast 302 348 16,000 -2,459 Descending Boston Center
Wed 04:01:08 AM 41.3469 -73.2586 42° Northeast 303 349 15,300 -1,900 Descending Boston Center
Wed 04:01:50 AM 41.3953 -73.2150 34° Northeast 302 348 14,100 -2,100 Descending Boston Center
Wed 04:02:08 AM 41.4142 -73.1931 41° Northeast 298 343 13,200 -2,200 Descending Boston Center
Wed 04:02:50 AM 41.4542 -73.1575 34° Northeast 290 334 11,900 -1,869 Descending Boston Center
Wed 04:03:09 AM 41.4750 -73.1300 45° Northeast 279 321 11,300 -1,500 Descending Boston Center
Wed 04:03:50 AM 41.5108 -73.0806 46° Northeast 271 312 10,400 -1,770 Descending Boston Center
Wed 04:04:10 AM 41.5275 -73.0556 48° Northeast 261 300 9,500 -2,300 Descending Boston Center
Wed 04:04:50 AM 41.5569 -73.0172 44° Northeast 258 297 8,100 -2,400 Descending Boston Center
Wed 04:05:10 AM 41.5781 -72.9839 50° Northeast 261 300 7,100 -2,100 Descending Boston Center
Wed 04:05:50 AM 41.6114 -72.9453 41° Northeast 258 297 6,000 -1,574 Descending Boston Center
Wed 04:06:11 AM 41.6261 -72.9233 48° Northeast 242 278 5,500 -1,300 Descending Boston Center
Wed 04:06:50 AM 41.6533 -72.8931 40° Northeast 236 272 4,700 -1,200 Descending Boston Center
Wed 04:07:11 AM 41.6783 -72.8847 14° North 220 253 4,300 -800 Descending Boston Center
Wed 04:07:50 AM 41.7158 -72.8794 North 203 234 3,900 -590 Descending Boston Center
Wed 04:08:12 AM 41.7367 -72.8797 359° North 208 239 3,700 -500 Descending Boston Center
Wed 04:08:50 AM 41.7639 -72.8742 North 195 224 3,400 -590 Descending Boston Center
Wed 04:09:13 AM 41.7889 -72.8744 360° North 177 204 3,100 -500 Descending Boston Center
Wed 04:09:50 AM 41.8097 -72.8606 26° Northeast 177 204 2,900 -100 Descending Boston Center
Wed 04:10:13 AM 41.8225 -72.8411 49° Northeast 154 177 3,000 -100 Climbing Boston Center
Wed 04:10:50 AM 41.8369 -72.8247 40° Northeast 148 170 2,800 -590 Descending Boston Center
Wed 04:11:14 AM 41.8517 -72.8053 45° Northeast 145 167 2,400 -800 Descending Boston Center
Wed 04:11:50 AM 41.8664 -72.7831 48° Northeast 143 165 2,000 -778 Descending Boston Center
Wed 04:12:08 AM 41.8789 -72.7692 40° Northeast 146 168 1,700 -700 Descending Boston Center
Wed 04:12:50 AM 41.8956 -72.7497 41° Northeast 138 159 1,300 -689 Descending Boston Center
Wed 04:13:09 AM 41.9039 -72.7358 51° Northeast 133 153 1,000 -700 Descending Boston Center
Wed 04:13:50 AM 41.9208 -72.7164 40° Northeast 133 153 600 -689 Descending Boston Center
Wed 04:14:10 AM 41.9292 -72.7025 51° Northeast 127 146 300 -900 Descending Boston Center
Wed 04:18:00 AM 41.9392 -72.6834 47° Northeast  Level Estimated
Wed 04:25:00 AM 41.9333 -72.6833 223° Southwest  Level FlightAware Approximate
Wed 04:26:00 AM 41.9392 -72.6834 223° Southwest  Level Estimated

Login

Don't have an account? Register now (free) for customized features, flight alerts, and more!